Time;durP1;ratioP1;P1;durP2;ratioP2;P2;SDS_P1;SDS_P2;PMS_P1;PMS_P2;Temp;Humidity;BMP_temperature;BMP_pressure;BME280_temperature;BME280_humidity;BME280_pressure;Samples;Min_cycle;Max_cycle;Signal;HPM_P1;HPM_P2
2023/07/21 00:00:28;;;;;;;23.77;10.27;;;;;;;23.85;100.00;100079.91;5066771;28;20033;-88
2023/07/21 00:02:53;;;;;;;18.95;9.23;;;;;;;23.96;100.00;100088.50;5077789;28;20088;-85
2023/07/21 00:05:19;;;;;;;23.70;8.93;;;;;;;23.89;100.00;100093.19;5078052;28;20453;-85
2023/07/21 00:07:44;;;;;;;31.90;10.05;;;;;;;23.84;100.00;100083.75;5078791;28;20048;-88
2023/07/21 00:10:10;;;;;;;39.28;10.27;;;;;;;23.81;100.00;100073.19;5078272;28;20116;-85
2023/07/21 00:12:48;;;;;;;20.73;9.52;;;;;;;23.94;100.00;100093.38;5058609;28;20051;-84
2023/07/21 00:15:18;;;;;;;20.58;9.23;;;;;;;23.87;100.00;100100.84;5055492;28;20021;-86
2023/07/21 00:17:46;;;;;;;20.55;9.10;;;;;;;23.97;100.00;100112.16;5053027;28;20051;-85
2023/07/21 00:20:19;;;;;;;23.90;9.70;;;;;;;23.81;100.00;100086.94;5054051;28;20040;-86
2023/07/21 00:22:44;;;;;;;24.10;10.65;;;;;;;23.77;100.00;100093.94;5053420;28;20086;-86
2023/07/21 00:25:13;;;;;;;27.50;10.85;;;;;;;23.97;100.00;100113.00;5052615;28;20428;-86
2023/07/21 00:27:39;;;;;;;15.55;9.90;;;;;;;23.80;100.00;100090.75;5052779;28;20401;-86
2023/07/21 00:30:08;;;;;;;29.27;8.82;;;;;;;23.92;100.00;100111.97;5051849;28;20017;-86
2023/07/21 00:32:41;;;;;;;16.13;8.45;;;;;;;23.81;100.00;100099.81;5055240;28;21051;-86
2023/07/21 00:35:08;;;;;;;15.88;9.68;;;;;;;23.92;100.00;100112.81;5053289;28;20036;-91
2023/07/21 00:37:37;;;;;;;16.85;10.05;;;;;;;23.84;100.00;100105.72;5053166;28;20052;-85
2023/07/21 00:40:04;;;;;;;21.25;9.93;;;;;;;23.74;100.00;100083.41;5052335;28;20013;-85
2023/07/21 00:42:30;;;;;;;23.17;9.90;;;;;;;23.95;100.00;100114.28;5052278;28;20055;-85
2023/07/21 00:44:58;;;;;;;16.60;9.77;;;;;;;23.77;100.00;100088.44;5052714;28;20025;-85
2023/07/21 00:47:24;;;;;;;17.75;10.55;;;;;;;23.91;100.00;100105.66;5052031;28;20028;-87
2023/07/21 00:49:51;;;;;;;20.60;11.40;;;;;;;23.81;100.00;100100.66;5052208;28;20033;-86
2023/07/21 00:52:18;;;;;;;23.55;10.85;;;;;;;23.95;100.00;100125.25;5052374;28;20028;-85
2023/07/21 00:54:47;;;;;;;24.02;12.30;;;;;;;23.85;100.00;100107.38;5052577;28;20059;-87
2023/07/21 00:57:15;;;;;;;28.05;13.50;;;;;;;23.92;100.00;100123.81;5051936;28;20513;-87
2023/07/21 00:59:41;;;;;;;22.27;14.18;;;;;;;23.79;100.00;100113.75;5052639;28;20065;-89
2023/07/21 01:02:06;;;;;;;33.13;15.35;;;;;;;23.74;100.00;100099.88;5052337;28;20065;-88
2023/07/21 01:04:33;;;;;;;28.00;15.45;;;;;;;23.81;100.00;100125.38;5052334;28;20021;-87
2023/07/21 01:07:03;;;;;;;22.77;14.55;;;;;;;23.63;100.00;100100.59;5052755;28;20032;-88
2023/07/21 01:09:30;;;;;;;38.63;14.07;;;;;;;23.70;100.00;100115.09;5052527;28;20029;-87
2023/07/21 01:11:56;;;;;;;33.88;14.85;;;;;;;23.76;100.00;100141.69;5052532;28;20044;-87
2023/07/21 01:14:22;;;;;;;24.90;13.35;;;;;;;23.64;100.00;100126.97;5052673;28;20017;-87
2023/07/21 01:16:48;;;;;;;32.17;15.20;;;;;;;23.58;100.00;100118.78;5051907;28;20024;-87
2023/07/21 01:19:15;;;;;;;17.27;14.13;;;;;;;23.71;100.00;100144.25;5051318;28;20025;-88
2023/07/21 01:21:49;;;;;;;23.30;14.68;;;;;;;23.54;100.00;100121.16;5050950;28;20040;-87
2023/07/21 01:24:50;;;;;;;37.08;15.48;;;;;;;23.64;100.00;100126.97;5052469;28;20025;-87
2023/07/21 01:27:21;;;;;;;27.13;14.18;;;;;;;23.60;100.00;100120.25;5071237;28;20036;-88
2023/07/21 01:29:47;;;;;;;32.67;13.30;;;;;;;23.60;100.00;100125.75;5069716;28;20035;-87
2023/07/21 01:32:17;;;;;;;24.92;13.00;;;;;;;23.57;100.00;100114.38;5070209;28;20042;-89
2023/07/21 01:34:43;;;;;;;30.50;15.57;;;;;;;23.64;100.00;100132.47;5055573;28;20043;-88
2023/07/21 01:37:11;;;;;;;19.65;12.82;;;;;;;23.62;100.00;100117.28;5070998;28;21000;-88
2023/07/21 01:39:38;;;;;;;23.65;13.07;;;;;;;23.51;100.00;100120.75;5053365;28;20059;-88
2023/07/21 01:42:05;;;;;;;22.92;13.50;;;;;;;23.51;100.00;100121.59;5071406;28;20492;-87
2023/07/21 01:44:31;;;;;;;31.88;14.68;;;;;;;23.57;100.00;100120.72;5071788;28;20056;-88
2023/07/21 01:46:57;;;;;;;20.67;12.95;;;;;;;23.77;100.00;100156.25;5077250;28;20092;-90
2023/07/21 01:49:23;;;;;;;23.83;11.90;;;;;;;23.66;100.00;100133.09;5087756;28;20128;-91
2023/07/21 01:51:50;;;;;;;25.95;12.55;;;;;;;23.68;100.00;100133.72;5073624;28;20043;-89
2023/07/21 01:54:36;;;;;;;61.03;14.25;;;;;;;23.80;100.00;100158.56;5070028;28;20044;-88
2023/07/21 01:57:06;;;;;;;17.17;11.77;;;;;;;23.83;100.00;100156.22;5070489;28;20040;-88
2023/07/21 01:59:32;;;;;;;27.92;11.10;;;;;;;23.75;100.00;100140.00;5069182;28;20072;-88
2023/07/21 02:01:59;;;;;;;25.83;11.07;;;;;;;23.75;100.00;100152.91;5055309;28;20460;-89
2023/07/21 02:04:25;;;;;;;19.98;12.55;;;;;;;23.59;100.00;100132.28;5050852;28;20048;-89
2023/07/21 02:06:51;;;;;;;24.83;11.27;;;;;;;23.59;99.92;100150.66;5052771;28;20067;-91
2023/07/21 02:09:19;;;;;;;19.45;10.60;;;;;;;23.57;99.74;100139.06;5052846;28;20044;-89
2023/07/21 02:11:45;;;;;;;20.02;10.80;;;;;;;23.52;98.60;100149.84;5054736;28;20029;-91
2023/07/21 02:14:10;;;;;;;23.58;11.52;;;;;;;23.57;98.49;100153.66;5073251;28;20017;-95
2023/07/21 02:16:37;;;;;;;17.35;11.00;;;;;;;23.46;97.69;100146.09;5053945;28;20095;-89
2023/07/21 02:19:06;;;;;;;19.48;11.82;;;;;;;23.56;96.92;100167.59;5069116;28;20036;-88
2023/07/21 02:21:32;;;;;;;27.45;10.82;;;;;;;23.70;97.53;100192.00;5069369;28;20123;-90
2023/07/21 02:23:58;;;;;;;23.67;10.73;;;;;;;23.52;96.85;100167.19;5068468;28;20039;-90
2023/07/21 02:26:23;;;;;;;26.55;11.93;;;;;;;23.59;96.40;100173.47;5052625;28;20427;-89
2023/07/21 02:28:49;;;;;;;18.35;10.73;;;;;;;23.54;95.65;100165.06;5085742;28;20040;-89
2023/07/21 02:31:15;;;;;;;20.95;10.63;;;;;;;23.60;95.37;100175.19;5069225;28;20033;-90
2023/07/21 02:33:40;;;;;;;16.98;9.55;;;;;;;23.69;95.36;100184.00;5069663;28;20055;-90
2023/07/21 02:36:06;;;;;;;18.85;10.48;;;;;;;23.64;95.23;100170.06;5052130;28;20052;-91
2023/07/21 02:38:32;;;;;;;33.30;10.70;;;;;;;23.63;93.95;100190.38;5068736;28;20135;-89
2023/07/21 02:41:03;;;;;;;28.13;9.70;;;;;;;23.60;95.76;100186.16;5086412;28;20041;-92
2023/07/21 02:43:29;;;;;;;17.40;11.18;;;;;;;23.36;96.16;100145.72;5053530;28;20515;-91
2023/07/21 02:45:55;;;;;;;19.73;12.35;;;;;;;23.55;96.43;100191.44;5070753;28;20044;-89
2023/07/21 02:48:22;;;;;;;23.88;12.38;;;;;;;23.28;96.89;100154.19;5062781;28;20123;-91
2023/07/21 02:50:49;;;;;;;20.75;13.30;;;;;;;23.32;96.83;100171.91;5055088;28;20048;-90
2023/07/21 02:53:15;;;;;;;23.63;14.75;;;;;;;23.33;96.47;100168.94;5086068;28;20028;-91
2023/07/21 02:55:42;;;;;;;31.67;19.35;;;;;;;23.27;95.14;100174.47;5056782;28;20453;-90
2023/07/21 02:58:09;;;;;;;43.15;29.33;;;;;;;23.43;95.36;100197.84;5057076;28;20032;-91
2023/07/21 03:00:35;;;;;;;95.22;59.47;;;;;;;23.39;95.44;100183.75;5062282;28;20033;-91
2023/07/21 03:03:03;;;;;;;93.55;63.65;;;;;;;23.23;95.70;100167.72;5056822;28;20037;-91
2023/07/21 03:05:29;;;;;;;74.07;50.90;;;;;;;23.23;94.38;100174.06;5089909;28;20470;-91
2023/07/21 03:07:59;;;;;;;39.78;30.98;;;;;;;23.39;94.51;100205.69;5056432;28;20021;-91
2023/07/21 03:10:25;;;;;;;31.77;22.83;;;;;;;23.11;94.48;100161.25;5059147;28;20032;-91
2023/07/21 03:12:50;;;;;;;27.65;18.33;;;;;;;23.08;94.46;100169.91;5062469;28;20029;-91
2023/07/21 03:15:16;;;;;;;21.15;12.77;;;;;;;23.13;93.77;100172.81;5059672;28;20033;-91
2023/07/21 03:17:44;;;;;;;23.88;11.70;;;;;;;23.15;93.94;100176.19;5059317;28;20037;-92
2023/07/21 03:20:12;;;;;;;23.27;11.82;;;;;;;23.27;94.02;100201.91;5058296;28;20037;-92
2023/07/21 03:29:21;;;;;;;29.35;10.82;;;;;;;23.24;92.76;100203.16;5045013;28;20094;-93
2023/07/21 03:31:48;;;;;;;29.27;10.52;;;;;;;23.21;92.55;100202.75;5070591;28;20101;-95
2023/07/21 03:34:14;;;;;;;19.40;9.40;;;;;;;23.51;93.12;100250.63;5070085;28;20099;-95
2023/07/21 03:36:40;;;;;;;16.52;8.73;;;;;;;23.35;92.32;100234.59;5065229;28;20068;-94
2023/07/21 03:42:30;;;;;;;25.48;10.68;;;;;;;23.37;92.51;100253.56;5079375;28;20051;-95
2023/07/21 03:44:56;;;;;;;18.02;9.05;;;;;;;23.51;90.31;100289.06;5078233;28;20043;-95
2023/07/21 03:47:22;;;;;;;21.48;9.55;;;;;;;23.28;89.35;100247.50;5079657;28;20017;-96
2023/07/21 03:49:47;;;;;;;20.08;10.35;;;;;;;23.57;87.59;100296.41;5079874;28;20056;-96
2023/07/21 03:56:01;;;;;;;27.20;9.25;;;;;;;23.59;86.76;100293.44;5079240;28;20080;-94
2023/07/21 03:58:27;;;;;;;26.77;11.60;;;;;;;23.43;85.21;100277.44;5079086;28;20029;-93
2023/07/21 04:00:52;;;;;;;24.08;9.32;;;;;;;23.32;85.08;100267.97;5078587;28;20040;-95
2023/07/21 04:03:20;;;;;;;21.77;9.82;;;;;;;23.63;85.54;100313.94;5079001;28;20092;-96
2023/07/21 04:05:46;;;;;;;43.00;12.25;;;;;;;23.46;85.91;100282.50;5051874;28;20104;-96
2023/07/21 04:14:56;;;;;;;24.52;11.48;;;;;;;23.69;85.68;100335.88;5049887;28;20033;-96
2023/07/21 04:17:23;;;;;;;30.42;11.75;;;;;;;23.47;86.32;100296.03;5057351;28;20018;-96
2023/07/21 04:22:24;;;;;;;32.45;11.63;;;;;;;23.54;87.22;100310.59;5441127;22;20033;-96
2023/07/21 04:24:49;;;;;;;73.93;14.25;;;;;;;23.57;86.36;100312.91;5056707;28;20085;-96
2023/07/21 04:29:49;;;;;;;17.17;8.75;;;;;;;23.71;87.32;100320.00;5023108;28;20054;-95
2023/07/21 04:32:16;;;;;;;13.05;7.90;;;;;;;24.07;87.17;100366.13;5277672;22;20056;-94
2023/07/21 04:34:42;;;;;;;36.60;10.88;;;;;;;24.02;86.10;100354.09;5175073;23;20056;-94
2023/07/21 04:37:10;;;;;;;36.17;11.02;;;;;;;24.00;84.20;100350.75;5130243;23;20054;-96
2023/07/21 04:39:55;;;;;;;30.15;10.85;;;;;;;24.26;85.22;100380.84;4915282;29;20041;-94
2023/07/21 04:45:06;;;;;;;73.03;13.10;;;;;;;24.26;86.70;100339.63;5233617;23;20158;-96
2023/07/21 04:47:32;;;;;;;19.27;10.63;;;;;;;24.24;83.94;100330.78;5182143;23;21059;-95
2023/07/21 04:49:59;;;;;;;53.80;12.70;;;;;;;24.38;83.95;100330.47;5083994;23;20064;-95
2023/07/21 04:58:12;;;;;;;35.08;8.68;;;;;;;24.83;82.27;100368.91;4940049;29;20028;-96
2023/07/21 05:00:38;;;;;;;24.20;10.35;;;;;;;24.86;82.98;100358.25;4927448;29;20052;-95
2023/07/21 05:03:06;;;;;;;44.50;10.52;;;;;;;25.08;82.85;100382.63;4923219;29;20074;-96
2023/07/21 05:05:35;;;;;;;32.58;8.82;;;;;;;25.16;80.02;100387.88;4909484;29;20412;-96
2023/07/21 05:08:01;;;;;;;25.17;8.63;;;;;;;25.27;81.51;100398.97;4922502;29;20044;-96
2023/07/21 05:10:27;;;;;;;15.82;9.15;;;;;;;25.21;81.69;100382.53;4923172;29;20036;-93
2023/07/21 05:12:53;;;;;;;17.60;7.47;;;;;;;25.20;81.16;100380.81;4925243;29;20052;-95
2023/07/21 05:15:20;;;;;;;37.95;10.05;;;;;;;25.26;80.10;100399.19;4921436;29;20056;-96
2023/07/21 05:17:46;;;;;;;15.35;7.45;;;;;;;25.10;80.70;100369.50;4904666;29;20040;-95
2023/07/21 05:20:12;;;;;;;24.92;6.93;;;;;;;25.10;77.64;100378.59;4904957;29;20063;-94
2023/07/21 05:22:37;;;;;;;23.30;9.57;;;;;;;25.22;78.70;100400.72;4907047;29;20032;-94
2023/07/21 05:25:07;;;;;;;38.08;10.43;;;;;;;25.27;78.62;100404.50;4905631;29;20044;-94
2023/07/21 05:27:32;;;;;;;35.35;8.75;;;;;;;25.31;78.76;100400.22;4904414;29;20066;-93
2023/07/21 05:29:59;;;;;;;18.33;7.80;;;;;;;25.37;78.94;100403.97;4903134;29;20450;-91
2023/07/21 05:32:25;;;;;;;25.50;7.75;;;;;;;25.44;77.25;100422.09;4921707;29;20064;-93
2023/07/21 05:34:50;;;;;;;32.00;7.78;;;;;;;25.27;78.41;100393.47;4904345;29;20036;-94
2023/07/21 05:37:16;;;;;;;23.38;7.95;;;;;;;25.39;75.42;100415.59;4917764;29;20040;-93
2023/07/21 05:39:42;;;;;;;31.23;9.38;;;;;;;25.27;75.72;100382.47;4902365;29;20038;-93
2023/07/21 05:42:08;;;;;;;34.08;7.60;;;;;;;25.50;77.61;100409.41;4916407;29;20041;-91
2023/07/21 05:44:33;;;;;;;55.90;11.27;;;;;;;25.62;75.84;100421.34;4915749;29;20378;-93
2023/07/21 05:47:00;;;;;;;30.17;8.10;;;;;;;25.50;75.40;100386.50;4915842;29;20028;-93
2023/07/21 05:49:25;;;;;;;21.77;8.88;;;;;;;25.54;74.73;100383.06;4917943;29;20381;-92
2023/07/21 05:51:51;;;;;;;18.08;7.47;;;;;;;25.72;75.47;100396.84;4916582;29;20091;-92
2023/07/21 05:54:17;;;;;;;37.92;8.65;;;;;;;25.85;74.47;100406.88;4918746;29;20091;-92
2023/07/21 05:56:43;;;;;;;18.08;8.98;;;;;;;26.01;73.83;100417.31;4915881;29;20052;-92
2023/07/21 05:59:08;;;;;;;31.80;8.90;;;;;;;26.00;74.39;100415.59;4919485;29;20457;-92
2023/07/21 06:01:36;;;;;;;19.52;7.85;;;;;;;26.06;74.77;100402.81;4918669;29;20096;-92
2023/07/21 06:04:03;;;;;;;47.55;9.65;;;;;;;26.25;72.32;100419.16;4916014;29;20032;-92
2023/07/21 06:06:29;;;;;;;36.53;9.95;;;;;;;26.32;72.18;100413.53;4915568;29;20489;-92
2023/07/21 06:08:55;;;;;;;19.92;8.30;;;;;;;26.30;73.50;100404.63;4918394;29;20047;-91
2023/07/21 06:11:22;;;;;;;30.65;8.57;;;;;;;26.46;73.22;100424.16;4917803;29;20032;-94
2023/07/21 06:13:48;;;;;;;28.35;10.00;;;;;;;26.50;72.80;100419.03;4901290;29;20040;-93
2023/07/21 06:16:13;;;;;;;22.35;8.60;;;;;;;26.64;71.97;100423.25;4915770;29;20039;-93
2023/07/21 06:18:39;;;;;;;29.02;9.55;;;;;;;26.76;71.89;100432.41;4916184;29;20036;-92
2023/07/21 06:21:04;;;;;;;43.17;10.98;;;;;;;26.72;72.75;100409.16;4916583;29;20473;-91
2023/07/21 06:23:30;;;;;;;33.65;9.10;;;;;;;27.00;71.86;100434.19;4899103;29;20115;-93
2023/07/21 06:25:55;;;;;;;50.53;9.85;;;;;;;26.97;70.96;100412.59;4918040;29;20039;-92
2023/07/21 06:28:21;;;;;;;53.60;10.15;;;;;;;27.19;69.82;100434.13;4915611;29;20552;-93
2023/07/21 06:30:47;;;;;;;46.22;9.10;;;;;;;27.32;68.58;100442.19;4915696;29;20032;-93
2023/07/21 06:33:13;;;;;;;18.05;7.80;;;;;;;27.36;69.11;100424.06;4901346;29;20032;-92
2023/07/21 06:35:39;;;;;;;97.82;14.85;;;;;;;27.31;68.24;100404.59;4916807;29;20386;-91
2023/07/21 06:38:05;;;;;;;17.58;8.18;;;;;;;27.48;68.36;100425.78;4917092;29;20591;-93
2023/07/21 06:40:31;;;;;;;37.28;9.77;;;;;;;27.46;68.58;100425.16;4913550;29;20043;-92
2023/07/21 06:42:56;;;;;;;21.17;8.25;;;;;;;27.65;67.85;100436.94;4915055;29;20032;-92
2023/07/21 06:45:22;;;;;;;35.53;8.80;;;;;;;27.78;67.12;100447.75;4913954;29;20070;-90
2023/07/21 06:47:47;;;;;;;17.08;7.53;;;;;;;27.81;65.94;100443.66;4899444;29;20043;-92
2023/07/21 06:50:13;;;;;;;40.58;10.02;;;;;;;27.80;66.66;100430.91;4915355;29;20553;-92
2023/07/21 06:52:39;;;;;;;25.65;7.93;;;;;;;27.72;66.72;100406.41;4918074;29;20480;-92
2023/07/21 06:55:06;;;;;;;37.92;10.07;;;;;;;27.89;66.77;100424.78;4926262;29;20068;-92
2023/07/21 06:57:31;;;;;;;52.28;10.80;;;;;;;27.95;65.88;100421.03;4932336;29;20060;-92
2023/07/21 06:59:57;;;;;;;20.33;8.10;;;;;;;28.05;63.32;100439.81;4927833;29;20397;-92
2023/07/21 07:02:22;;;;;;;40.05;10.13;;;;;;;28.09;61.83;100446.53;4914831;29;20398;-92
2023/07/21 07:04:53;;;;;;;26.88;13.82;;;;;;;27.90;61.46;100429.22;4914919;29;20032;-92
2023/07/21 07:07:19;;;;;;;22.63;8.45;;;;;;;27.93;62.05;100453.63;4913655;29;20047;-92
2023/07/21 07:09:45;;;;;;;20.88;7.78;;;;;;;27.93;63.08;100455.53;4915183;29;20032;-92
2023/07/21 07:12:10;;;;;;;18.23;7.45;;;;;;;27.86;62.33;100435.47;4915058;29;20131;-91
2023/07/21 07:14:36;;;;;;;26.30;7.13;;;;;;;27.93;61.18;100445.34;4915507;29;20437;-90
2023/07/21 07:17:01;;;;;;;13.80;7.88;;;;;;;27.96;60.86;100449.53;4917041;29;20088;-92
2023/07/21 07:19:27;;;;;;;17.98;6.82;;;;;;;27.94;60.79;100446.19;4922825;29;20038;-92
2023/07/21 07:21:53;;;;;;;19.08;7.78;;;;;;;27.92;60.39;100442.84;4916943;29;20032;-92
2023/07/21 07:24:20;;;;;;;17.73;7.35;;;;;;;28.14;61.06;100462.38;4930352;29;20144;-92
2023/07/21 07:26:46;;;;;;;20.60;7.80;;;;;;;28.25;60.67;100458.78;4916282;29;20421;-91
2023/07/21 07:29:11;;;;;;;20.02;7.53;;;;;;;28.29;60.38;100462.72;4915269;29;20028;-92
2023/07/21 07:31:37;;;;;;;23.77;7.70;;;;;;;28.25;60.10;100456.00;4916177;29;20111;-92
2023/07/21 07:34:04;;;;;;;12.75;6.43;;;;;;;28.20;59.75;100462.25;4937464;29;20074;-91
2023/07/21 07:36:29;;;;;;;16.85;6.47;;;;;;;28.14;58.72;100460.47;4918726;29;20054;-91
2023/07/21 07:38:55;;;;;;;26.00;6.47;;;;;;;28.13;59.59;100478.19;4938516;29;20119;-90
2023/07/21 07:41:20;;;;;;;52.33;9.27;;;;;;;28.16;60.34;100468.53;4935887;29;20032;-92
2023/07/21 07:43:46;;;;;;;23.25;7.22;;;;;;;28.23;59.50;100449.88;4934106;29;20102;-91
2023/07/21 07:46:12;;;;;;;21.83;7.30;;;;;;;28.30;59.56;100458.88;4934327;29;20035;-92
2023/07/21 07:48:38;;;;;;;22.38;7.63;;;;;;;28.27;59.76;100451.91;4935861;29;20122;-90
2023/07/21 07:51:05;;;;;;;17.95;7.15;;;;;;;28.36;59.72;100453.22;4935539;29;20036;-92
2023/07/21 07:53:35;;;;;;;40.45;8.02;;;;;;;28.38;59.11;100456.56;4935346;29;20088;-92
2023/07/21 07:56:01;;;;;;;16.77;7.43;;;;;;;28.53;59.27;100478.19;4935759;29;20143;-91
2023/07/21 07:58:27;;;;;;;32.15;7.90;;;;;;;28.53;60.69;100456.06;4935641;29;20492;-91
2023/07/21 08:00:57;;;;;;;18.98;7.68;;;;;;;28.48;60.98;100444.88;4936100;29;20063;-91
2023/07/21 08:03:23;;;;;;;22.65;7.47;;;;;;;28.69;62.04;100466.34;4934383;29;20370;-91
2023/07/21 08:05:50;;;;;;;26.25;8.27;;;;;;;28.81;62.21;100469.91;4911995;29;20049;-91
2023/07/21 08:08:18;;;;;;;23.08;9.10;;;;;;;28.78;63.21;100464.00;4933207;29;20182;-91
2023/07/21 08:10:47;;;;;;;25.70;8.02;;;;;;;28.92;63.77;100468.19;4928497;29;20059;-92
2023/07/21 08:13:13;;;;;;;23.38;8.20;;;;;;;28.92;64.74;100471.78;4922973;29;20489;-93
2023/07/21 08:15:44;;;;;;;14.27;7.53;;;;;;;28.79;65.18;100472.09;4916317;29;20039;-92
2023/07/21 08:18:13;;;;;;;21.63;9.45;;;;;;;28.74;65.23;100473.94;4918559;29;20039;-92
2023/07/21 08:20:39;;;;;;;16.98;7.45;;;;;;;28.80;64.19;100482.09;4916582;29;20488;-93
2023/07/21 08:23:05;;;;;;;29.17;7.53;;;;;;;28.88;64.41;100487.22;4917446;29;20043;-93
2023/07/21 08:25:31;;;;;;;36.20;9.50;;;;;;;28.92;64.01;100482.88;4918479;29;20032;-93
2023/07/21 08:27:58;;;;;;;29.60;8.10;;;;;;;28.88;63.00;100481.69;4916982;29;20036;-94
2023/07/21 08:30:24;;;;;;;16.20;7.28;;;;;;;28.98;63.43;100503.19;4917244;29;20433;-94
2023/07/21 08:32:49;;;;;;;18.67;7.70;;;;;;;28.86;63.83;100494.94;4916881;29;20117;-94
2023/07/21 08:35:15;;;;;;;36.42;8.85;;;;;;;28.84;63.99;100490.72;4918665;29;20354;-93
2023/07/21 08:37:40;;;;;;;22.08;7.25;;;;;;;28.90;64.21;100495.25;4919008;29;20063;-94
2023/07/21 08:40:07;;;;;;;16.90;8.60;;;;;;;28.91;64.55;100502.50;4919796;29;20099;-94
2023/07/21 08:42:34;;;;;;;27.63;9.52;;;;;;;28.94;64.28;100502.00;4918499;29;20028;-94
2023/07/21 08:45:03;;;;;;;26.95;8.30;;;;;;;28.96;63.50;100499.84;4918203;29;20036;-94
2023/07/21 08:47:30;;;;;;;21.23;7.13;;;;;;;29.05;62.08;100504.69;4919682;29;20420;-94
2023/07/21 08:49:56;;;;;;;14.60;8.35;;;;;;;29.06;62.16;100506.38;4919560;29;20040;-93
2023/07/21 08:52:21;;;;;;;19.75;8.80;;;;;;;29.00;62.48;100499.06;4919188;29;20040;-96
2023/07/21 08:54:47;;;;;;;23.33;9.80;;;;;;;29.20;62.28;100514.41;4902685;29;20040;-96
2023/07/21 08:57:14;;;;;;;18.25;8.50;;;;;;;29.14;62.51;100497.66;4901658;29;20532;-96
2023/07/21 08:59:40;;;;;;;17.75;7.55;;;;;;;29.10;62.42;100499.28;4903113;29;20040;-95
2023/07/21 09:02:05;;;;;;;22.55;8.45;;;;;;;29.00;62.67;100501.00;4919022;29;20873;-95
2023/07/21 09:04:31;;;;;;;21.05;7.97;;;;;;;29.09;63.06;100516.97;4917232;29;20520;-95
2023/07/21 09:06:59;;;;;;;24.65;9.30;;;;;;;29.13;62.35;100501.53;4937319;29;20039;-94
2023/07/21 09:09:26;;;;;;;26.58;8.18;;;;;;;29.22;60.93;100498.34;4939009;29;20138;-95
2023/07/21 09:12:08;;;;;;;27.85;10.07;;;;;;;29.11;61.56;100514.78;4949058;29;20035;-92
2023/07/21 09:14:38;;;;;;;26.83;7.95;;;;;;;29.07;60.92;100512.78;4941837;28;20072;-94
2023/07/21 09:17:06;;;;;;;37.13;17.30;;;;;;;28.98;61.92;100509.56;4939388;29;20066;-95
2023/07/21 09:19:36;;;;;;;22.35;8.52;;;;;;;29.02;61.68;100519.03;4932021;29;20040;-95
2023/07/21 09:22:01;;;;;;;24.98;9.52;;;;;;;29.21;61.35;100530.75;4911345;29;20040;-96
2023/07/21 09:24:27;;;;;;;22.85;8.80;;;;;;;29.41;59.54;100527.56;4925418;29;20040;-96
2023/07/21 09:27:12;;;;;;;21.35;8.00;;;;;;;29.59;58.09;100538.41;4922506;29;20187;-94
2023/07/21 09:29:37;;;;;;;17.70;7.82;;;;;;;29.67;57.68;100529.66;4935325;29;20059;-94
2023/07/21 09:32:14;;;;;;;13.38;8.10;;;;;;;29.76;57.59;100527.28;4939067;29;20043;-94
2023/07/21 09:34:59;;;;;;;19.92;7.47;;;;;;;29.86;57.38;100524.72;4938389;29;20032;-93
2023/07/21 09:37:26;;;;;;;50.03;11.05;;;;;;;29.88;56.57;100526.13;4937770;29;20119;-94
2023/07/21 09:39:57;;;;;;;31.35;8.90;;;;;;;29.98;56.06;100526.31;4922700;29;20032;-92
2023/07/21 09:42:24;;;;;;;16.83;7.85;;;;;;;30.09;55.76;100522.56;4939554;29;20052;-94
2023/07/21 09:44:51;;;;;;;19.05;7.60;;;;;;;30.06;54.56;100503.66;4924771;29;20051;-95
2023/07/21 09:47:17;;;;;;;24.63;8.38;;;;;;;29.93;54.09;100492.94;4928178;29;20036;-96
2023/07/21 09:49:46;;;;;;;15.02;7.63;;;;;;;30.11;54.04;100514.84;4926329;29;20035;-96
2023/07/21 09:52:15;;;;;;;13.52;8.07;;;;;;;30.23;53.66;100540.56;4925661;29;20024;-95
2023/07/21 09:54:44;;;;;;;13.68;7.03;;;;;;;30.16;53.00;100523.25;4935411;29;20024;-95
2023/07/21 09:57:16;;;;;;;23.10;8.10;;;;;;;30.19;52.13;100519.94;4936795;29;20521;-95
2023/07/21 09:59:48;;;;;;;15.60;7.10;;;;;;;30.31;51.94;100525.38;4938358;29;20055;-93
2023/07/21 10:02:15;;;;;;;13.52;6.93;;;;;;;30.41;51.87;100530.28;4981195;23;20070;-95
2023/07/21 10:04:42;;;;;;;25.05;8.95;;;;;;;30.56;52.38;100530.47;4944312;29;20121;-94
2023/07/21 10:07:10;;;;;;;16.10;6.30;;;;;;;30.50;51.84;100525.94;4940310;29;20143;-96
2023/07/21 10:09:36;;;;;;;18.45;7.47;;;;;;;30.60;52.31;100529.72;4926335;29;20039;-95
2023/07/21 10:12:39;;;;;;;14.57;6.65;;;;;;;30.51;52.83;100539.59;4929066;29;20063;-96
2023/07/21 10:15:19;;;;;;;25.75;8.50;;;;;;;30.24;55.16;100533.88;4869900;29;20045;-96
2023/07/21 10:18:00;;;;;;;12.05;7.35;;;;;;;30.19;57.47;100528.28;4851864;29;20070;-96
2023/07/21 10:20:44;;;;;;;27.20;7.63;;;;;;;30.22;58.35;100533.31;4865115;29;20076;-94
2023/07/21 10:23:12;;;;;;;16.08;8.52;;;;;;;30.25;58.87;100531.97;4844399;29;20110;-95
2023/07/21 10:25:56;;;;;;;28.23;9.02;;;;;;;30.19;59.45;100533.81;4865032;29;20056;-94
2023/07/21 10:28:54;;;;;;;13.10;7.82;;;;;;;30.22;61.12;100538.03;4860463;29;20056;-93
2023/07/21 10:31:22;;;;;;;21.73;10.10;;;;;;;30.27;61.46;100535.34;4786772;29;20050;-96
2023/07/21 10:34:08;;;;;;;20.83;8.70;;;;;;;29.98;61.15;100537.41;4787565;29;20126;-96
2023/07/21 10:36:51;;;;;;;21.67;8.48;;;;;;;29.82;61.52;100538.25;4786768;29;20049;-95
2023/07/21 10:39:26;;;;;;;28.70;10.05;;;;;;;29.69;62.50;100535.81;4786679;29;20058;-94
2023/07/21 10:42:05;;;;;;;18.70;7.50;;;;;;;29.73;62.98;100536.97;4787145;29;20112;-94
2023/07/21 10:44:37;;;;;;;20.05;9.13;;;;;;;29.92;63.46;100554.22;4787230;29;20047;-96
2023/07/21 10:47:05;;;;;;;15.07;7.72;;;;;;;30.09;62.55;100553.09;4790624;29;20054;-95
2023/07/21 10:49:31;;;;;;;15.55;7.05;;;;;;;29.89;63.13;100546.41;4788526;29;20081;-96
2023/07/21 10:51:57;;;;;;;21.80;8.50;;;;;;;29.87;63.92;100546.66;4801182;29;20042;-96
2023/07/21 10:54:23;;;;;;;13.52;7.13;;;;;;;29.78;63.25;100548.16;4823503;29;20046;-96
2023/07/21 10:56:51;;;;;;;15.75;8.00;;;;;;;29.93;64.30;100544.81;4809712;29;20043;-94
2023/07/21 10:59:18;;;;;;;14.40;7.38;;;;;;;30.08;62.29;100532.00;4808673;29;20038;-94
2023/07/21 11:01:46;;;;;;;12.30;6.97;;;;;;;30.15;61.32;100527.09;4823254;29;20058;-95
2023/07/21 11:04:13;;;;;;;48.70;10.57;;;;;;;30.23;59.57;100537.78;4808818;29;20408;-95
2023/07/21 11:06:43;;;;;;;20.52;8.63;;;;;;;30.31;59.84;100519.84;4849199;29;20044;-96
2023/07/21 11:09:11;;;;;;;25.75;10.52;;;;;;;30.55;57.14;100534.38;4895691;29;20104;-95
2023/07/21 11:11:41;;;;;;;36.53;9.35;;;;;;;30.76;57.86;100544.63;4882103;29;20044;-96
2023/07/21 11:14:15;;;;;;;26.65;7.75;;;;;;;30.87;56.38;100540.84;4882118;29;20033;-94
2023/07/21 11:16:54;;;;;;;26.33;7.13;;;;;;;30.85;54.70;100537.50;4901298;29;20040;-94
2023/07/21 11:19:21;;;;;;;14.52;6.90;;;;;;;31.00;54.71;100546.03;4886171;29;20107;-96
2023/07/21 11:21:47;;;;;;;14.48;6.65;;;;;;;31.04;56.13;100541.63;4886212;29;20036;-96
2023/07/21 11:24:20;;;;;;;17.15;7.75;;;;;;;31.01;56.28;100535.78;4887538;29;20029;-96
2023/07/21 11:26:47;;;;;;;22.48;8.13;;;;;;;30.86;58.10;100533.63;4889716;29;20037;-96
2023/07/21 11:29:13;;;;;;;28.65;7.88;;;;;;;30.92;57.38;100535.34;4902489;29;20129;-96
2023/07/21 11:31:38;;;;;;;29.25;8.77;;;;;;;30.76;57.61;100539.06;4940005;29;20031;-94
2023/07/21 11:34:18;;;;;;;24.40;8.95;;;;;;;30.59;58.49;100530.78;4942148;29;20030;-96
2023/07/21 11:36:44;;;;;;;12.23;7.15;;;;;;;30.64;58.28;100530.03;4941560;29;20035;-96
2023/07/21 11:39:14;;;;;;;22.35;7.72;;;;;;;30.71;58.04;100534.28;4924066;29;20019;-96
2023/07/21 11:41:39;;;;;;;19.02;7.63;;;;;;;30.62;55.80;100508.06;4924648;29;20036;-95
2023/07/21 11:44:11;;;;;;;20.38;6.90;;;;;;;30.61;55.93;100525.00;4925994;29;20027;-95
2023/07/21 11:46:40;;;;;;;;;;;;;;;30.67;57.03;100532.28;4942589;29;20042;-95
2023/07/21 11:49:11;;;;;;;20.65;7.90;;;;;;;30.58;56.87;100526.31;4942900;29;19949;-94